NCAR-RAP Real-Time Weather Data

Output produced by METARs form (17 January 2018  22:26 UTC)
found at http://weather.rap.ucar.edu/surface/
 
Conditions at: KDAB observed 17 January 2018  21:53 UTC
Temperature: 15.0°C (59°F)
Dewpoint: 8.3°C (47°F) [RH = 64%]
Pressure (altimeter): 30.19 inches Hg (1022.4 mb)
[Sea-level pressure: 1022.2 mb]
Winds: from the NW (310 degrees) at 15 MPH (13 knots; 6.8 m/s)
gusting to 24 MPH (21 knots; 10.9 m/s)
Visibility: 10 or more miles (16+ km)
Ceiling: at least 12,000 feet AGL
Clouds: scattered clouds at 4300 feet AGL
scattered clouds at 25000 feet AGL
Present Weather: no significant weather observed at this time
KDAB 172153Z 31013G21KT 10SM SCT043 SCT250 15/08 A3019 RMK AO2 SLP222 T01500083

Conditions at: KDAB observed 17 January 2018  20:53 UTC
Temperature: 17.8°C (64°F)
Dewpoint: 9.4°C (49°F) [RH = 58%]
Pressure (altimeter): 30.17 inches Hg (1021.8 mb)
[Sea-level pressure: 1021.5 mb]
Winds: from the NW (310 degrees) at 15 MPH (13 knots; 6.8 m/s)
Visibility: 10 or more miles (16+ km)
Ceiling: 5000 feet AGL
Clouds: broken clouds at 5000 feet AGL
broken clouds at 25000 feet AGL
Present Weather: no significant weather observed at this time
KDAB 172053Z 31013KT 10SM BKN050 BKN250 18/09 A3017 RMK AO2 SLP215 T01780094 55010

Conditions at: KDAB observed 17 January 2018  19:53 UTC
Temperature: 20.0°C (68°F)
Dewpoint: 9.4°C (49°F) [RH = 50%]
Pressure (altimeter): 30.16 inches Hg (1021.4 mb)
[Sea-level pressure: 1021.3 mb]
Winds: from the NW (310 degrees) at 10 MPH (9 knots; 4.7 m/s)
gusting to 21 MPH (18 knots; 9.4 m/s)
Visibility: 10 or more miles (16+ km)
Ceiling: 6000 feet AGL
Clouds: broken clouds at 6000 feet AGL
broken clouds at 25000 feet AGL
Present Weather: no significant weather observed at this time
KDAB 171953Z 31009G18KT 10SM BKN060 BKN250 20/09 A3016 RMK AO2 SLP213 T02000094

Conditions at: KDAB observed 17 January 2018  18:53 UTC
Temperature: 21.1°C (70°F)
Dewpoint: 8.3°C (47°F) [RH = 44%]
Pressure (altimeter): 30.17 inches Hg (1021.8 mb)
[Sea-level pressure: 1021.5 mb]
Winds: from the W (260 degrees) at 12 MPH (10 knots; 5.2 m/s)
Visibility: 10 or more miles (16+ km)
Ceiling: at least 12,000 feet AGL
Clouds: few clouds at 4500 feet AGL
few clouds at 25000 feet AGL
Present Weather: no significant weather observed at this time
KDAB 171853Z 26010KT 10SM FEW045 FEW250 21/08 A3017 RMK AO2 SLP215 T02110083

Conditions at: KDAB observed 17 January 2018  17:53 UTC
Temperature: 20.0°C (68°F)
Dewpoint: 7.8°C (46°F) [RH = 45%]
Pressure (altimeter): 30.20 inches Hg (1022.8 mb)
[Sea-level pressure: 1022.5 mb]
Winds: from the W (260 degrees) at 12 MPH (10 knots; 5.2 m/s)
Visibility: 10 or more miles (16+ km)
Ceiling: at least 12,000 feet AGL
Clouds: few clouds at 25000 feet AGL
Present Weather: no significant weather observed at this time
KDAB 171753Z 26010KT 10SM FEW250 20/08 A3020 RMK AO2 SLP225 T02000078 10206 20078 58021

Conditions at: KDAB observed 17 January 2018  16:53 UTC
Temperature: 20.0°C (68°F)
Dewpoint: 8.3°C (47°F) [RH = 47%]
Pressure (altimeter): 30.24 inches Hg (1024.1 mb)
[Sea-level pressure: 1023.9 mb]
Winds: from the WNW (290 degrees) at 12 MPH (10 knots; 5.2 m/s)
Visibility: 10 or more miles (16+ km)
Ceiling: at least 12,000 feet AGL
Clouds: few clouds at 25000 feet AGL
Present Weather: no significant weather observed at this time
KDAB 171653Z 29010KT 10SM FEW250 20/08 A3024 RMK AO2 SLP239 T02000083

Conditions at: KDAB observed 17 January 2018  15:53 UTC
Temperature: 18.3°C (65°F)
Dewpoint: 7.8°C (46°F) [RH = 50%]
Pressure (altimeter): 30.26 inches Hg (1024.8 mb)
[Sea-level pressure: 1024.7 mb]
Winds: variable direction winds at 6 MPH (5 knots; 2.6 m/s)
Visibility: 10 or more miles (16+ km)
Ceiling: at least 12,000 feet AGL
Clouds: few clouds at 25000 feet AGL
Present Weather: no significant weather observed at this time
KDAB 171553Z VRB05KT 10SM FEW250 18/08 A3026 RMK AO2 SLP247 T01830078

Conditions at: KDAB observed 17 January 2018  14:53 UTC
Temperature: 15.6°C (60°F)
Dewpoint: 8.9°C (48°F) [RH = 64%]
Pressure (altimeter): 30.26 inches Hg (1024.8 mb)
[Sea-level pressure: 1024.6 mb]
Winds: from the NW (310 degrees) at 3 MPH (3 knots; 1.6 m/s)
Visibility: 10 or more miles (16+ km)
Ceiling: at least 12,000 feet AGL
Clouds: few clouds at 25000 feet AGL
Present Weather: no significant weather observed at this time
KDAB 171453Z 31003KT 10SM FEW250 16/09 A3026 RMK AO2 SLP246 T01560089 50004

Conditions at: KDAB observed 17 January 2018  13:53 UTC
Temperature: 11.1°C (52°F)
Dewpoint: 8.9°C (48°F) [RH = 86%]
Pressure (altimeter): 30.26 inches Hg (1024.8 mb)
[Sea-level pressure: 1024.7 mb]
Winds: calm
Visibility: 10 or more miles (16+ km)
Ceiling: at least 12,000 feet AGL
Clouds: few clouds at 4500 feet AGL
few clouds at 7000 feet AGL
few clouds at 25000 feet AGL
Present Weather: no significant weather observed at this time
KDAB 171353Z COR 00000KT 10SM FEW045 FEW070 FEW250 11/09 A3026 RMK AO2 SLP247 T01110089

Conditions at: KDAB observed 17 January 2018  12:53 UTC
Temperature: 8.3°C (47°F)
Dewpoint: 7.2°C (45°F) [RH = 93%]
Pressure (altimeter): 30.26 inches Hg (1024.8 mb)
[Sea-level pressure: 1024.7 mb]
Winds: calm
Visibility: 10 or more miles (16+ km)
Ceiling: at least 12,000 feet AGL
Clouds: scattered clouds at 4500 feet AGL
scattered clouds at 7000 feet AGL
scattered clouds at 25000 feet AGL
Present Weather: no significant weather observed at this time
KDAB 171253Z 00000KT 10SM SCT045 SCT070 SCT250 08/07 A3026 RMK AO2 SLP247 T00830072

Conditions at: KDAB observed 17 January 2018  11:53 UTC
Temperature: 8.9°C (48°F)
Dewpoint: 7.8°C (46°F) [RH = 93%]
Pressure (altimeter): 30.25 inches Hg (1024.5 mb)
[Sea-level pressure: 1024.1 mb]
Winds: calm
Visibility: 10 or more miles (16+ km)
Ceiling: at least 12,000 feet AGL
Clouds: few clouds at 4000 feet AGL
few clouds at 15000 feet AGL
few clouds at 25000 feet AGL
Present Weather: no significant weather observed at this time
KDAB 171153Z 00000KT 10SM FEW040 FEW150 FEW250 09/08 A3025 RMK AO2 SLP241 T00890078 10111 20078 53004

Conditions at: KDAB observed 17 January 2018  10:53 UTC
Temperature: 9.4°C (49°F)
Dewpoint: 7.8°C (46°F) [RH = 90%]
Pressure (altimeter): 30.23 inches Hg (1023.8 mb)
[Sea-level pressure: 1023.5 mb]
Winds: from the NNW (330 degrees) at 6 MPH (5 knots; 2.6 m/s)
Visibility: 10 or more miles (16+ km)
Ceiling: at least 12,000 feet AGL
Clouds: few clouds at 5500 feet AGL
Present Weather: no significant weather observed at this time
KDAB 171053Z 33005KT 10SM FEW055 09/08 A3023 RMK AO2 SLP235 T00940078

Conditions at: KDAB observed 17 January 2018  09:53 UTC
Temperature: 10.6°C (51°F)
Dewpoint: 9.4°C (49°F) [RH = 92%]
Pressure (altimeter): 30.23 inches Hg (1023.8 mb)
[Sea-level pressure: 1023.6 mb]
Winds: calm
Visibility: 10 or more miles (16+ km)
Ceiling: at least 12,000 feet AGL
Clouds: sky clear below 12,000 feet AGL
Present Weather: no significant weather observed at this time
KDAB 170953Z 00000KT 10SM CLR 11/09 A3023 RMK AO2 SLP236 T01060094

Conditions at: KDAB observed 17 January 2018  08:53 UTC
Temperature: 10.0°C (50°F)
Dewpoint: 9.4°C (49°F) [RH = 96%]
Pressure (altimeter): 30.23 inches Hg (1023.8 mb)
[Sea-level pressure: 1023.7 mb]
Winds: calm
Visibility: 10 or more miles (16+ km)
Ceiling: at least 12,000 feet AGL
Clouds: few clouds at 7000 feet AGL
Present Weather: no significant weather observed at this time
KDAB 170853Z 00000KT 10SM FEW070 10/09 A3023 RMK AO2 SLP237 T01000094 56015

Conditions at: KDAB observed 17 January 2018  07:53 UTC
Temperature: 10.6°C (51°F)
Dewpoint: 9.4°C (49°F) [RH = 92%]
Pressure (altimeter): 30.23 inches Hg (1023.8 mb)
[Sea-level pressure: 1023.7 mb]
Winds: from the N (350 degrees) at 6 MPH (5 knots; 2.6 m/s)
Visibility: 10 or more miles (16+ km)
Ceiling: at least 12,000 feet AGL
Clouds: sky clear below 12,000 feet AGL
Present Weather: no significant weather observed at this time
KDAB 170753Z 35005KT 10SM CLR 11/09 A3023 RMK AO2 SLP237 T01060094

Conditions at: KDAB observed 17 January 2018  06:53 UTC
Temperature: 10.0°C (50°F)
Dewpoint: 10.0°C (50°F) [RH = 100%]
Pressure (altimeter): 30.26 inches Hg (1024.8 mb)
[Sea-level pressure: 1024.6 mb]
Winds: calm
Visibility: 8 miles (13 km)
Ceiling: at least 12,000 feet AGL
Clouds: scattered clouds at 7000 feet AGL
Present Weather: no significant weather observed at this time
KDAB 170653Z 00000KT 8SM SCT070 10/10 A3026 RMK AO2 SLP246 T01000100

Conditions at: KDAB observed 17 January 2018  05:53 UTC
Temperature: 10.6°C (51°F)
Dewpoint: 10.6°C (51°F) [RH = 100%]
Pressure (altimeter): 30.28 inches Hg (1025.5 mb)
[Sea-level pressure: 1025.2 mb]
Winds: calm
Visibility: 9 miles (14 km)
Ceiling: at least 12,000 feet AGL
Clouds: scattered clouds at 6000 feet AGL
Present Weather: no significant weather observed at this time
KDAB 170553Z 00000KT 9SM SCT060 11/11 A3028 RMK AO2 SLP252 T01060106 10117 20106 56013

Conditions at: KDAB observed 17 January 2018  04:53 UTC
Temperature: 10.6°C (51°F)
Dewpoint: 10.6°C (51°F) [RH = 100%]
Pressure (altimeter): 30.29 inches Hg (1025.8 mb)
[Sea-level pressure: 1025.5 mb]
Winds: from the N (350 degrees) at 3 MPH (3 knots; 1.6 m/s)
Visibility: 8 miles (13 km)
Ceiling: at least 12,000 feet AGL
Clouds: sky clear below 12,000 feet AGL
Present Weather: no significant weather observed at this time
KDAB 170453Z 35003KT 8SM CLR 11/11 A3029 RMK AO2 SLP255 T01060106 401830083

Conditions at: KDAB observed 17 January 2018  03:53 UTC
Temperature: 11.1°C (52°F)
Dewpoint: 10.6°C (51°F) [RH = 97%]
Pressure (altimeter): 30.30 inches Hg (1026.2 mb)
[Sea-level pressure: 1026.1 mb]
Winds: from the NNW (340 degrees) at 5 MPH (4 knots; 2.1 m/s)
Visibility: 9 miles (14 km)
Ceiling: at least 12,000 feet AGL
Clouds: sky clear below 12,000 feet AGL
Present Weather: no significant weather observed at this time
KDAB 170353Z 34004KT 9SM CLR 11/11 A3030 RMK AO2 SLP261 T01110106

Conditions at: KDAB observed 17 January 2018  02:53 UTC
Temperature: 11.1°C (52°F)
Dewpoint: 10.6°C (51°F) [RH = 97%]
Pressure (altimeter): 30.32 inches Hg (1026.8 mb)
[Sea-level pressure: 1026.5 mb]
Winds: from the NNW (330 degrees) at 6 MPH (5 knots; 2.6 m/s)
Visibility: 8 miles (13 km)
Ceiling: at least 12,000 feet AGL
Clouds: sky clear below 12,000 feet AGL
Present Weather: no significant weather observed at this time
KDAB 170253Z 33005KT 8SM CLR 11/11 A3032 RMK AO2 SLP265 T01110106 53004

Conditions at: KDAB observed 17 January 2018  01:53 UTC
Temperature: 11.1°C (52°F)
Dewpoint: 11.1°C (52°F) [RH = 100%]
Pressure (altimeter): 30.31 inches Hg (1026.5 mb)
[Sea-level pressure: 1026.3 mb]
Winds: from the N (350 degrees) at 3 MPH (3 knots; 1.6 m/s)
Visibility: 8 miles (13 km)
Ceiling: at least 12,000 feet AGL
Clouds: sky clear below 12,000 feet AGL
Present Weather: no significant weather observed at this time
KDAB 170153Z 35003KT 8SM CLR 11/11 A3031 RMK AO2 SLP263 T01110111

Conditions at: KDAB observed 17 January 2018  00:53 UTC
Temperature: 11.1°C (52°F)
Dewpoint: 10.6°C (51°F) [RH = 97%]
Pressure (altimeter): 30.31 inches Hg (1026.5 mb)
[Sea-level pressure: 1026.2 mb]
Winds: calm
Visibility: 9 miles (14 km)
Ceiling: at least 12,000 feet AGL
Clouds: sky clear below 12,000 feet AGL
Present Weather: no significant weather observed at this time
KDAB 170053Z 00000KT 9SM CLR 11/11 A3031 RMK AO2 SLP262 T01110106

Conditions at: KDAB observed 16 January 2018  23:53 UTC
Temperature: 11.7°C (53°F)
Dewpoint: 10.6°C (51°F) [RH = 93%]
Pressure (altimeter): 30.31 inches Hg (1026.5 mb)
[Sea-level pressure: 1026.1 mb]
Winds: from the N (360 degrees) at 5 MPH (4 knots; 2.1 m/s)
Visibility: 10 or more miles (16+ km)
Ceiling: at least 12,000 feet AGL
Clouds: few clouds at 25000 feet AGL
Present Weather: no significant weather observed at this time
KDAB 162353Z 36004KT 10SM FEW250 12/11 A3031 RMK AO2 SLP261 T01170106 10183 20117 58006

Conditions at: KDAB observed 16 January 2018  22:53 UTC
Temperature: 12.8°C (55°F)
Dewpoint: 10.6°C (51°F) [RH = 86%]
Pressure (altimeter): 30.33 inches Hg (1027.2 mb)
[Sea-level pressure: 1026.8 mb]
Winds: from the N (360 degrees) at 8 MPH (7 knots; 3.6 m/s)
Visibility: 10 or more miles (16+ km)
Ceiling: at least 12,000 feet AGL
Clouds: few clouds at 2500 feet AGL
few clouds at 25000 feet AGL
Present Weather: no significant weather observed at this time
KDAB 162253Z 36007KT 10SM FEW025 FEW250 13/11 A3033 RMK AO2 SLP268 T01280106

Conditions at: KDAB observed 16 January 2018  21:53 UTC
Temperature: 14.4°C (58°F)
Dewpoint: 11.1°C (52°F) [RH = 81%]
Pressure (altimeter): 30.31 inches Hg (1026.5 mb)
[Sea-level pressure: 1026.4 mb]
Winds: from the NNE (20 degrees) at 14 MPH (12 knots; 6.2 m/s)
Visibility: 10 or more miles (16+ km)
Ceiling: at least 12,000 feet AGL
Clouds: few clouds at 2500 feet AGL
few clouds at 25000 feet AGL
Present Weather: no significant weather observed at this time
KDAB 162153Z 02012KT 10SM FEW025 FEW250 14/11 A3031 RMK AO2 SLP264 T01440111

Conditions at: KDAB observed 16 January 2018  20:53 UTC
Temperature: 16.1°C (61°F)
Dewpoint: 11.1°C (52°F) [RH = 72%]
Pressure (altimeter): 30.32 inches Hg (1026.8 mb)
[Sea-level pressure: 1026.7 mb]
Winds: from the NNE (20 degrees) at 10 MPH (9 knots; 4.7 m/s)
Visibility: 10 or more miles (16+ km)
Ceiling: at least 12,000 feet AGL
Clouds: few clouds at 2500 feet AGL
few clouds at 6500 feet AGL
few clouds at 25000 feet AGL
Present Weather: no significant weather observed at this time
KDAB 162053Z 02009KT 10SM FEW025 FEW065 FEW250 16/11 A3032 RMK AO2 SLP267 T01610111 55013

Conditions at: KDAB observed 16 January 2018  19:53 UTC
Temperature: 16.7°C (62°F)
Dewpoint: 11.1°C (52°F) [RH = 70%]
Pressure (altimeter): 30.32 inches Hg (1026.8 mb)
[Sea-level pressure: 1026.7 mb]
Winds: from the N (350 degrees) at 12 MPH (10 knots; 5.2 m/s)
Visibility: 10 or more miles (16+ km)
Ceiling: at least 12,000 feet AGL
Clouds: few clouds at 3000 feet AGL
few clouds at 25000 feet AGL
Present Weather: no significant weather observed at this time
KDAB 161953Z 35010KT 10SM FEW030 FEW250 17/11 A3032 RMK AO2 SLP267 T01670111

Conditions at: KDAB observed 16 January 2018  18:53 UTC
Temperature: 17.2°C (63°F)
Dewpoint: 11.1°C (52°F) [RH = 67%]
Pressure (altimeter): 30.33 inches Hg (1027.2 mb)
[Sea-level pressure: 1027.0 mb]
Winds: from the N (10 degrees) at 16 MPH (14 knots; 7.3 m/s)
Visibility: 10 or more miles (16+ km)
Ceiling: at least 12,000 feet AGL
Clouds: few clouds at 3000 feet AGL
few clouds at 25000 feet AGL
Present Weather: no significant weather observed at this time
KDAB 161853Z 01014KT 10SM FEW030 FEW250 17/11 A3033 RMK AO2 SLP270 T01720111

Conditions at: KDAB observed 16 January 2018  17:53 UTC
Temperature: 17.8°C (64°F)
Dewpoint: 11.1°C (52°F) [RH = 65%]
Pressure (altimeter): 30.36 inches Hg (1028.2 mb)
[Sea-level pressure: 1027.9 mb]
Winds: from the NNE (20 degrees) at 15 MPH (13 knots; 6.8 m/s)
Visibility: 10 or more miles (16+ km)
Ceiling: at least 12,000 feet AGL
Clouds: few clouds at 3000 feet AGL
few clouds at 20000 feet AGL
Present Weather: no significant weather observed at this time
KDAB 161753Z 02013KT 10SM FEW030 FEW200 18/11 A3036 RMK AO2 SLP279 T01780111 10183 20083 58014

Conditions at: KDAB observed 16 January 2018  16:53 UTC
Temperature: 18.3°C (65°F)
Dewpoint: 11.1°C (52°F) [RH = 63%]
Pressure (altimeter): 30.38 inches Hg (1028.9 mb)
[Sea-level pressure: 1028.8 mb]
Winds: from the N (10 degrees) at 10 MPH (9 knots; 4.7 m/s)
Visibility: 10 or more miles (16+ km)
Ceiling: at least 12,000 feet AGL
Clouds: few clouds at 3000 feet AGL
Present Weather: no significant weather observed at this time
KDAB 161653Z 01009KT 10SM FEW030 18/11 A3038 RMK AO2 SLP288 T01830111

Conditions at: KDAB observed 16 January 2018  15:53 UTC
Temperature: 17.8°C (64°F)
Dewpoint: 11.1°C (52°F) [RH = 65%]
Pressure (altimeter): 30.40 inches Hg (1029.5 mb)
[Sea-level pressure: 1029.1 mb]
Winds: from the N (10 degrees) at 12 MPH (10 knots; 5.2 m/s)
Visibility: 10 or more miles (16+ km)
Ceiling: at least 12,000 feet AGL
Clouds: sky clear below 12,000 feet AGL
Present Weather: no significant weather observed at this time
KDAB 161553Z 01010KT 10SM CLR 18/11 A3040 RMK AO2 SLP291 T01780111

Conditions at: KDAB observed 16 January 2018  14:53 UTC
Temperature: 16.1°C (61°F)
Dewpoint: 11.1°C (52°F) [RH = 72%]
Pressure (altimeter): 30.40 inches Hg (1029.5 mb)
[Sea-level pressure: 1029.3 mb]
Winds: from the N (10 degrees) at 12 MPH (10 knots; 5.2 m/s)
Visibility: 10 or more miles (16+ km)
Ceiling: at least 12,000 feet AGL
Clouds: sky clear below 12,000 feet AGL
Present Weather: no significant weather observed at this time
KDAB 161453Z 01010KT 10SM CLR 16/11 A3040 RMK AO2 SLP293 T01610111 53012

Conditions at: KDAB observed 16 January 2018  13:53 UTC
Temperature: 12.2°C (54°F)
Dewpoint: 10.0°C (50°F) [RH = 86%]
Pressure (altimeter): 30.39 inches Hg (1029.2 mb)
[Sea-level pressure: 1028.9 mb]
Winds: from the NNW (340 degrees) at 6 MPH (5 knots; 2.6 m/s)
Visibility: 10 or more miles (16+ km)
Ceiling: at least 12,000 feet AGL
Clouds: sky clear below 12,000 feet AGL
Present Weather: no significant weather observed at this time
KDAB 161353Z 34005KT 10SM CLR 12/10 A3039 RMK AO2 SLP289 T01220100

Conditions at: KDAB observed 16 January 2018  12:53 UTC
Temperature: 9.4°C (49°F)
Dewpoint: 8.3°C (47°F) [RH = 93%]
Pressure (altimeter): 30.38 inches Hg (1028.9 mb)
[Sea-level pressure: 1028.5 mb]
Winds: from the NW (320 degrees) at 3 MPH (3 knots; 1.6 m/s)
Visibility: 9 miles (14 km)
Ceiling: at least 12,000 feet AGL
Clouds: few clouds at 6000 feet AGL
Present Weather: no significant weather observed at this time
KDAB 161253Z 32003KT 9SM FEW060 09/08 A3038 RMK AO2 SLP285 T00940083

Conditions at: KDAB observed 16 January 2018  11:53 UTC
Temperature: 8.3°C (47°F)
Dewpoint: 7.8°C (46°F) [RH = 97%]
Pressure (altimeter): 30.37 inches Hg (1028.5 mb)
[Sea-level pressure: 1028.2 mb]
Winds: calm
Visibility: 10 or more miles (16+ km)
Ceiling: at least 12,000 feet AGL
Clouds: few clouds at 6000 feet AGL
Present Weather: no significant weather observed at this time
KDAB 161153Z 00000KT 10SM FEW060 08/08 A3037 RMK AO2 SLP282 T00830078 10111 20083 53008

Conditions at: KDAB observed 16 January 2018  10:53 UTC
Temperature: 8.9°C (48°F)
Dewpoint: 8.3°C (47°F) [RH = 96%]
Pressure (altimeter): 30.35 inches Hg (1027.9 mb)
[Sea-level pressure: 1027.8 mb]
Winds: calm
Visibility: 10 or more miles (16+ km)
Ceiling: at least 12,000 feet AGL
Clouds: sky clear below 12,000 feet AGL
Present Weather: no significant weather observed at this time
KDAB 161053Z 00000KT 10SM CLR 09/08 A3035 RMK AO2 SLP278 T00890083

Conditions at: KDAB observed 16 January 2018  09:53 UTC
Temperature: 8.3°C (47°F)
Dewpoint: 8.3°C (47°F) [RH = 100%]
Pressure (altimeter): 30.34 inches Hg (1027.5 mb)
[Sea-level pressure: 1027.3 mb]
Winds: from the NW (310 degrees) at 5 MPH (4 knots; 2.1 m/s)
Visibility: 10 or more miles (16+ km)
Ceiling: at least 12,000 feet AGL
Clouds: sky clear below 12,000 feet AGL
Present Weather: no significant weather observed at this time
KDAB 160953Z 31004KT 10SM CLR 08/08 A3034 RMK AO2 SLP273 T00830083

Conditions at: KDAB observed 16 January 2018  08:53 UTC
Temperature: 8.3°C (47°F)
Dewpoint: 8.3°C (47°F) [RH = 100%]
Pressure (altimeter): 30.34 inches Hg (1027.5 mb)
[Sea-level pressure: 1027.3 mb]
Winds: from the WNW (300 degrees) at 3 MPH (3 knots; 1.6 m/s)
Visibility: 9 miles (14 km)
Ceiling: at least 12,000 feet AGL
Clouds: sky clear below 12,000 feet AGL
Present Weather: no significant weather observed at this time
KDAB 160853Z 30003KT 9SM CLR 08/08 A3034 RMK AO2 SLP273 T00830083 55008

Conditions at: KDAB observed 16 January 2018  07:53 UTC
Temperature: 10.0°C (50°F)
Dewpoint: 8.9°C (48°F) [RH = 93%]
Pressure (altimeter): 30.34 inches Hg (1027.5 mb)
[Sea-level pressure: 1027.2 mb]
Winds: from the NW (320 degrees) at 5 MPH (4 knots; 2.1 m/s)
Visibility: 10 or more miles (16+ km)
Ceiling: at least 12,000 feet AGL
Clouds: sky clear below 12,000 feet AGL
Present Weather: no significant weather observed at this time
KDAB 160753Z 32004KT 10SM CLR 10/09 A3034 RMK AO2 SLP272 T01000089

Conditions at: KDAB observed 16 January 2018  06:53 UTC
Temperature: 10.6°C (51°F)
Dewpoint: 8.9°C (48°F) [RH = 89%]
Pressure (altimeter): 30.35 inches Hg (1027.9 mb)
[Sea-level pressure: 1027.5 mb]
Winds: from the N (360 degrees) at 5 MPH (4 knots; 2.1 m/s)
Visibility: 10 or more miles (16+ km)
Ceiling: at least 12,000 feet AGL
Clouds: sky clear below 12,000 feet AGL
Present Weather: no significant weather observed at this time
KDAB 160653Z 36004KT 10SM CLR 11/09 A3035 RMK AO2 SLP275 T01060089

Conditions at: KDAB observed 16 January 2018  05:53 UTC
Temperature: 10.6°C (51°F)
Dewpoint: 8.9°C (48°F) [RH = 89%]
Pressure (altimeter): 30.36 inches Hg (1028.2 mb)
[Sea-level pressure: 1028.1 mb]
Winds: from the N (350 degrees) at 6 MPH (5 knots; 2.6 m/s)
Visibility: 10 or more miles (16+ km)
Ceiling: at least 12,000 feet AGL
Clouds: sky clear below 12,000 feet AGL
Present Weather: no significant weather observed at this time
KDAB 160553Z 35005KT 10SM CLR 11/09 A3036 RMK AO2 SLP281 T01060089 10111 20094 58009

Conditions at: KDAB observed 16 January 2018  04:53 UTC
Temperature: 10.6°C (51°F)
Dewpoint: 8.9°C (48°F) [RH = 89%]
Pressure (altimeter): 30.38 inches Hg (1028.9 mb)
[Sea-level pressure: 1028.5 mb]
Winds: from the N (10 degrees) at 8 MPH (7 knots; 3.6 m/s)
Visibility: 10 or more miles (16+ km)
Ceiling: at least 12,000 feet AGL
Clouds: sky clear below 12,000 feet AGL
Present Weather: no significant weather observed at this time
KDAB 160453Z 01007KT 10SM CLR 11/09 A3038 RMK AO2 SLP285 T01060089 401440072

Conditions at: KDAB observed 16 January 2018  03:53 UTC
Temperature: 10.6°C (51°F)
Dewpoint: 8.3°C (47°F) [RH = 86%]
Pressure (altimeter): 30.39 inches Hg (1029.2 mb)
[Sea-level pressure: 1029.0 mb]
Winds: from the N (10 degrees) at 12 MPH (10 knots; 5.2 m/s)
Visibility: 10 or more miles (16+ km)
Ceiling: at least 12,000 feet AGL
Clouds: sky clear below 12,000 feet AGL
Present Weather: no significant weather observed at this time
KDAB 160353Z 01010KT 10SM CLR 11/08 A3039 RMK AO2 SLP290 T01060083

Conditions at: KDAB observed 16 January 2018  02:53 UTC
Temperature: 10.0°C (50°F)
Dewpoint: 7.2°C (45°F) [RH = 83%]
Pressure (altimeter): 30.39 inches Hg (1029.2 mb)
[Sea-level pressure: 1029.0 mb]
Winds: from the N (10 degrees) at 10 MPH (9 knots; 4.7 m/s)
Visibility: 10 or more miles (16+ km)
Ceiling: at least 12,000 feet AGL
Clouds: sky clear below 12,000 feet AGL
Present Weather: no significant weather observed at this time
KDAB 160253Z 01009KT 10SM CLR 10/07 A3039 RMK AO2 SLP290 T01000072 50004

Conditions at: KDAB observed 16 January 2018  01:53 UTC
Temperature: 10.0°C (50°F)
Dewpoint: 7.2°C (45°F) [RH = 83%]
Pressure (altimeter): 30.39 inches Hg (1029.2 mb)
[Sea-level pressure: 1029.1 mb]
Winds: from the N (360 degrees) at 8 MPH (7 knots; 3.6 m/s)
Visibility: 10 or more miles (16+ km)
Ceiling: at least 12,000 feet AGL
Clouds: sky clear below 12,000 feet AGL
Present Weather: no significant weather observed at this time
KDAB 160153Z 36007KT 10SM CLR 10/07 A3039 RMK AO2 SLP291 T01000072

Conditions at: KDAB observed 16 January 2018  00:53 UTC
Temperature: 9.4°C (49°F)
Dewpoint: 6.7°C (44°F) [RH = 83%]
Pressure (altimeter): 30.39 inches Hg (1029.2 mb)
[Sea-level pressure: 1028.8 mb]
Winds: from the N (350 degrees) at 10 MPH (9 knots; 4.7 m/s)
Visibility: 10 or more miles (16+ km)
Ceiling: at least 12,000 feet AGL
Clouds: sky clear below 12,000 feet AGL
Present Weather: no significant weather observed at this time
KDAB 160053Z 35009KT 10SM CLR 09/07 A3039 RMK AO2 SLP288 T00940067

Conditions at: KDAB observed 15 January 2018  23:53 UTC
Temperature: 9.4°C (49°F)
Dewpoint: 6.1°C (43°F) [RH = 80%]
Pressure (altimeter): 30.38 inches Hg (1028.9 mb)
[Sea-level pressure: 1028.6 mb]
Winds: from the N (350 degrees) at 8 MPH (7 knots; 3.6 m/s)
Visibility: 10 or more miles (16+ km)
Ceiling: at least 12,000 feet AGL
Clouds: sky clear below 12,000 feet AGL
Present Weather: no significant weather observed at this time
KDAB 152353Z 35007KT 10SM CLR 09/06 A3038 RMK AO2 SLP286 T00940061 10139 20094 51008

Conditions at: KDAB observed 15 January 2018  22:53 UTC
Temperature: 9.4°C (49°F)
Dewpoint: 5.6°C (42°F) [RH = 77%]
Pressure (altimeter): 30.37 inches Hg (1028.5 mb)
[Sea-level pressure: 1028.3 mb]
Winds: from the N (350 degrees) at 10 MPH (9 knots; 4.7 m/s)
Visibility: 10 or more miles (16+ km)
Ceiling: at least 12,000 feet AGL
Clouds: few clouds at 25000 feet AGL
Present Weather: no significant weather observed at this time
KDAB 152253Z 35009KT 10SM FEW250 09/06 A3037 RMK AO2 SLP283 T00940056